world map with IXR marked

IXR - Airport

This information may not be accurate or current and is not valid for navigation or flight planning. No warranty of fitness for any purpose is made or implied.

flag of India

Donate via PayPal

Additional information is available on the NEW Great Circle Mapper

Location
City:  Ranchi, Jharkhand, India
Name:Birsa Munda
ICAO / IATA:VERC / IXR

Details
Type:Airport (Aerodrome, Airfield)
Latitude:23°18'51"N (23.314250)
Longitude:85°19'18"E (85.321675)
Datum:WGS 1984
Elevation:2148 ft (655 m)
Runways:1
Longest:8855 × 148 ft (2699 × 45 m)

Time
Timezone:UTC+5:30 (DST+7:30)
Local Time:

Weather
METAR:VERC  141630Z 00000KT 3000 HZ SCT015 FEW030CB BKN100 25/24 Q1003 NOSIG
TAF:VERC  (expired)

Related Locations
Nearby:
Farthest:SCFX: 11508 mi / 18520 km
Isla San Félix, Desventuradas Islands, VS, CL

Find:

   beyond  
but within

Other Information
Maps:
Sources:

  


 


Great Circle Mapper   Great Circle Mapper
Great Circle Mapper FAQ   Great Circle Mapper FAQ
  Karl's Home Page
KLS˛   KLS˛ Home
   GC on Facebook
Airlines of the World   Airlines of the World
Donate via PayPal


Copyright © 2004-2018, Karl L. Swartz. All rights reserved.
All trademarks mentioned herein belong to their respective owners.

Please see credits for attribution and copyright information.

Karl Swartz <karl@kls2.com>
  Powered by FreeBSD
Valid HTML 4.01!
Labeled with ICRA
hCard Microformat
Geo Microformat